Las Heras, Argentina
Current Conditions -  °F | °C
As of 6:00 PM on Wednesday 26 Nov 2014 (Local Time) from SAME Reporting Station
Clear Clear  
Wind Chill: 86°   Ceiling: Unl
Heat Index: 86°   Visibility: 6mi
Dew Point: 39°   Wind: 8mph
Humidity: 19%   Direction: 360°N
Pressure: 29.83"   Gusts: NA
Location:  32.85°S, 68.82°W
Report Text: SAME 262100Z 36007KT CAVOK 30/04 Q1010
Loading
Personal Weather Stations






























Interactive Weather Map New forecast layout! Learn more

10-Day Weather Forecast

Advertisements
Track Severe Weather on mobile